This is the latest recevied weather packets stored in our database for station/object KC5DAQ-24. If no packets are shown the sender has not sent any weather packets the latest 1 day(s).
| Time | Temp. | Humidity | Pressure | Rain* | Wind** | Luminosity | Snow |
|---|---|---|---|---|---|---|---|
| 1777997581 | 26.11° C | 82% | 1008.4 hPa | 0 mm | 4.02 m/s, 0° | 153 W/m² | - |
| 1777997524 | 26.11° C | 82% | 1008.4 hPa | 0 mm | 3.13 m/s, 0° | 153 W/m² | - |
| 1777997463 | 26.11° C | 82% | 1008.4 hPa | 0 mm | 3.58 m/s, 0° | 178 W/m² | - |
| 1777997405 | 26.11° C | 82% | 1008.4 hPa | 0 mm | 4.02 m/s, 0° | 190 W/m² | - |
| 1777997343 | 26.11° C | 82% | 1008.4 hPa | 0 mm | 3.13 m/s, 0° | - | - |
| 1777997283 | 26.11° C | 82% | 1008.4 hPa | 0 mm | 2.68 m/s, 0° | - | - |
| 1777996740 | - | - | 1008.3 hPa | 0 mm | 3.13 m/s, 0° | - | - |
| 1777996680 | 26.11° C | 82% | 1008.3 hPa | 0 mm | 3.13 m/s, 0° | 162 W/m² | - |
| 1777996620 | 26.11° C | 82% | 1008.3 hPa | 0 mm | 3.13 m/s, 0° | 162 W/m² | - |
| 1777996560 | 26.11° C | 82% | 1008.2 hPa | 0 mm | 3.13 m/s, 0° | 162 W/m² | - |
| 1777996498 | 26.11° C | 82% | 1008.2 hPa | 0 mm | 3.13 m/s, 0° | 162 W/m² | - |
| 1777996439 | 26.11° C | 82% | 1008.2 hPa | 0 mm | 3.13 m/s, 0° | 162 W/m² | - |
| 1777996378 | 26.11° C | 82% | 1008.3 hPa | 0 mm | 3.13 m/s, 0° | 162 W/m² | - |
| 1777996319 | 26.11° C | 82% | 1008.3 hPa | 0 mm | 3.13 m/s, 0° | 162 W/m² | - |
| 1777996258 | 26.11° C | 82% | 1008.2 hPa | 0 mm | 3.13 m/s, 0° | 162 W/m² | - |
| 1777996198 | 26.11° C | 82% | 1008.3 hPa | 0 mm | 3.13 m/s, 0° | 162 W/m² | - |
| 1777996139 | 26.11° C | 82% | 1008.3 hPa | 0 mm | 2.68 m/s, 0° | 162 W/m² | - |
| 1777996078 | 26.11° C | 82% | 1008.3 hPa | 0 mm | 2.24 m/s, 0° | 179 W/m² | - |
| 1777996018 | 26.11° C | 83% | 1008.2 hPa | 0 mm | 2.68 m/s, 0° | 176 W/m² | - |
| 1777995958 | 26.11° C | 83% | 1008.2 hPa | 0 mm | 2.24 m/s, 0° | 200 W/m² | - |
| 1777995897 | 26.11° C | 83% | 1008.2 hPa | 0 mm | 2.24 m/s, 0° | 199 W/m² | - |
| 1777995838 | 25.56° C | 83% | 1008.1 hPa | 0 mm | 2.68 m/s, 0° | 199 W/m² | - |
| 1777995777 | 25.56° C | 83% | 1008.1 hPa | 0 mm | 2.68 m/s, 0° | 213 W/m² | - |
| 1777995718 | 25.56° C | 83% | 1008.1 hPa | 0 mm | 1.34 m/s, 0° | 113 W/m² | - |
| 1777995659 | 25.56° C | 83% | 1008.1 hPa | 0 mm | 1.79 m/s, 0° | 113 W/m² | - |
* Rain latest hour (hover to see other rain measurements)
** Current wind speed in m/s (hover to see current wind gust speed)